createdAt,value
2023-06-29T00:02:08.052Z,1.23
2023-06-29T00:05:04.642Z,1.25
2023-06-29T00:08:08.579Z,1.20
2023-06-29T00:11:08.680Z,1.42
2023-06-29T00:14:28.305Z,1.40
2023-06-29T00:17:39.925Z,1.30
2023-06-29T01:00:57.244Z,1.65
2023-06-29T01:07:46.965Z,1.30
2023-06-29T01:11:09.804Z,1.38
2023-06-29T01:30:52.663Z,1.55
2023-06-29T01:34:05.869Z,1.08
2023-06-29T01:40:25.507Z,1.20
2023-06-29T01:43:33.875Z,1.50
2023-06-29T01:46:56.425Z,1.23
2023-06-29T01:56:13.287Z,1.42
2023-06-29T02:13:42.340Z,1.45
2023-06-29T02:19:49.209Z,1.35
2023-06-29T02:23:15.174Z,1.67
2023-06-29T02:30:06.134Z,1.48
2023-06-29T02:32:55.582Z,1.33
2023-06-29T02:36:04.688Z,1.23
2023-06-29T02:42:03.086Z,2.00
2023-06-29T02:48:03.374Z,1.73
2023-06-29T02:50:50.797Z,1.17
2023-06-29T02:53:37.753Z,1.38
2023-06-29T02:56:38.846Z,1.52
2023-06-29T03:02:32.930Z,1.60
2023-06-29T03:05:44.903Z,1.58
2023-06-29T03:08:43.166Z,1.52
2023-06-29T03:11:25.691Z,1.73
2023-06-29T03:14:05.708Z,1.35
2023-06-29T03:19:51.073Z,1.42
2023-06-29T03:22:32.173Z,1.40
2023-06-29T03:25:17.775Z,1.80
2023-06-29T03:30:46.530Z,1.77
2023-06-29T03:33:42.190Z,1.80
2023-06-29T03:36:42.773Z,1.33
2023-06-29T03:39:45.562Z,1.10
2023-06-29T03:42:43.105Z,2.00
2023-06-29T03:46:12.382Z,1.27
2023-06-29T03:49:16.141Z,1.75
2023-06-29T03:52:38.223Z,1.50
2023-06-29T03:56:13.489Z,1.45
2023-06-29T04:05:30.572Z,1.67
2023-06-29T04:08:09.862Z,1.27
2023-06-29T04:10:42.979Z,1.55
2023-06-29T04:13:16.093Z,1.33
2023-06-29T04:15:43.576Z,1.70
2023-06-29T04:18:10.862Z,1.80
2023-06-29T04:20:38.422Z,1.98
2023-06-29T04:23:06.330Z,1.70
2023-06-29T04:29:28.870Z,1.58
2023-06-29T04:32:07.140Z,1.98
2023-06-29T04:34:35.583Z,2.13
2023-06-29T04:37:14.690Z,1.88
2023-06-29T04:39:53.212Z,2.20
2023-06-29T04:42:29.337Z,1.45
2023-06-29T04:44:57.134Z,2.13
2023-06-29T04:47:30.046Z,1.95
2023-06-29T04:50:03.353Z,1.83
2023-06-29T04:52:45.250Z,1.85
2023-06-29T04:55:21.259Z,1.40
2023-06-29T04:58:01.840Z,1.52
2023-06-29T05:00:41.565Z,2.05
2023-06-29T05:03:20.274Z,1.98
2023-06-29T05:09:55.144Z,1.67
2023-06-29T05:13:06.928Z,1.40
2023-06-29T05:15:36.545Z,1.70
2023-06-29T05:18:03.231Z,1.80
2023-06-29T05:20:30.135Z,1.98
2023-06-29T05:22:56.755Z,1.63
2023-06-29T05:25:23.608Z,1.90
2023-06-29T05:27:50.185Z,1.90
2023-06-29T05:30:18.056Z,1.75
2023-06-29T05:32:44.950Z,2.10
2023-06-29T05:35:11.581Z,1.60
2023-06-29T05:37:38.187Z,1.65
2023-06-29T05:40:07.987Z,1.73
2023-06-29T05:42:34.787Z,1.73
2023-06-29T05:45:01.483Z,1.88
2023-06-29T05:47:28.158Z,1.80
2023-06-29T05:49:54.903Z,1.85
2023-06-29T05:52:21.702Z,2.65
2023-06-29T05:54:48.524Z,1.83
2023-06-29T05:57:18.040Z,1.70
2023-06-29T05:59:44.801Z,1.58
2023-06-29T06:02:11.704Z,1.58
2023-06-29T06:04:38.560Z,1.77
2023-06-29T06:07:05.354Z,1.38
2023-06-29T06:09:32.079Z,1.40
2023-06-29T06:11:58.986Z,1.17
2023-06-29T06:14:25.630Z,1.77
2023-06-29T06:16:52.257Z,1.48
2023-06-29T06:19:19.014Z,1.58
2023-06-29T06:21:45.723Z,1.70
2023-06-29T06:24:12.522Z,1.90
2023-06-29T06:26:39.316Z,1.20
2023-06-29T06:29:06.061Z,1.38
2023-06-29T06:31:35.026Z,1.40
2023-06-29T06:34:02.292Z,1.75
2023-06-29T06:36:32.287Z,1.88
2023-06-29T06:38:59.629Z,1.38
2023-06-29T06:41:26.198Z,1.52
2023-06-29T06:43:53.057Z,1.50
2023-06-29T06:46:19.880Z,1.80
2023-06-29T06:48:46.779Z,1.45
2023-06-29T06:51:13.491Z,1.50
2023-06-29T06:53:40.558Z,1.50
2023-06-29T06:56:07.374Z,1.35
2023-06-29T06:58:35.120Z,1.40
2023-06-29T07:01:01.891Z,1.60
2023-06-29T07:03:28.805Z,1.23
2023-06-29T07:05:56.691Z,1.55
2023-06-29T07:08:23.524Z,1.45
2023-06-29T07:10:52.409Z,1.40
2023-06-29T07:13:19.568Z,1.65
2023-06-29T07:15:49.749Z,1.35
2023-06-29T07:18:16.738Z,1.33
2023-06-29T07:25:44.049Z,0.95
2023-06-29T07:28:11.187Z,1.08
2023-06-29T07:30:37.888Z,1.05
2023-06-29T07:33:04.866Z,1.45
2023-06-29T07:35:31.736Z,1.25
2023-06-29T07:37:58.417Z,1.05
2023-06-29T07:40:25.456Z,0.98
2023-06-29T07:42:52.345Z,1.15
2023-06-29T07:45:19.165Z,1.17
2023-06-29T07:47:46.081Z,1.40
2023-06-29T07:50:12.827Z,1.27
2023-06-29T07:52:39.420Z,1.48
2023-06-29T07:55:06.335Z,1.30
2023-06-29T08:00:03.885Z,1.05
2023-06-29T08:02:46.420Z,1.00
2023-06-29T08:07:44.196Z,1.30
2023-06-29T08:10:11.498Z,1.40
2023-06-29T08:12:38.294Z,1.10
2023-06-29T08:15:05.301Z,1.40
2023-06-29T08:17:32.035Z,0.98
2023-06-29T08:19:58.721Z,1.50
2023-06-29T08:22:25.357Z,1.40
2023-06-29T08:24:52.463Z,1.08
2023-06-29T08:27:20.731Z,1.00
2023-06-29T08:29:47.469Z,1.38
2023-06-29T08:32:14.523Z,0.93
2023-06-29T08:34:41.280Z,1.20
2023-06-29T08:37:07.929Z,1.35
2023-06-29T08:39:34.774Z,1.23
2023-06-29T08:42:04.294Z,1.50
2023-06-29T08:44:34.582Z,0.80
2023-06-29T08:47:02.967Z,1.45
2023-06-29T08:49:30.547Z,0.90
2023-06-29T08:52:00.786Z,1.02
2023-06-29T08:54:29.169Z,1.30
2023-06-29T08:56:57.097Z,1.10
2023-06-29T08:59:24.867Z,1.00
2023-06-29T09:01:53.122Z,1.10
2023-06-29T09:04:20.121Z,1.15
2023-06-29T09:06:47.903Z,0.90
2023-06-29T09:09:15.532Z,1.50
2023-06-29T09:11:43.832Z,0.95
2023-06-29T09:14:10.748Z,1.10
2023-06-29T09:16:51.336Z,0.80
2023-06-29T09:19:19.221Z,0.90
2023-06-29T09:21:48.832Z,1.13
2023-06-29T09:24:15.925Z,1.10
2023-06-29T09:26:42.581Z,0.95
2023-06-29T09:29:09.349Z,1.10
2023-06-29T09:31:38.064Z,1.20
2023-06-29T09:34:28.843Z,0.93
2023-06-29T09:36:56.501Z,1.27
2023-06-29T09:39:23.688Z,1.23
2023-06-29T09:41:51.660Z,0.90
2023-06-29T09:44:20.749Z,1.17
2023-06-29T09:49:07.524Z,0.95
2023-06-29T09:49:46.402Z,0.82
2023-06-29T09:52:13.186Z,0.90
2023-06-29T09:54:40.130Z,1.05
2023-06-29T09:57:09.969Z,1.00
2023-06-29T09:59:37.022Z,1.15
2023-06-29T10:02:05.215Z,1.13
2023-06-29T10:04:32.065Z,1.30
2023-06-29T10:07:16.353Z,1.13
2023-06-29T10:09:48.960Z,1.10
2023-06-29T10:14:45.695Z,1.30
2023-06-29T10:17:20.842Z,1.15
2023-06-29T10:19:49.012Z,1.02
2023-06-29T10:22:18.110Z,0.88
2023-06-29T10:24:50.862Z,1.33
2023-06-29T10:27:19.681Z,1.35
2023-06-29T10:29:47.821Z,1.20
2023-06-29T10:32:34.959Z,1.15
2023-06-29T10:35:14.753Z,0.98
2023-06-29T10:37:51.630Z,1.00
2023-06-29T10:40:20.430Z,1.10
2023-06-29T10:42:47.181Z,1.13
2023-06-29T10:45:19.938Z,1.70
2023-06-29T10:48:00.352Z,0.90
2023-06-29T10:50:47.163Z,1.50
2023-06-29T10:53:18.316Z,1.55
2023-06-29T10:55:58.838Z,1.05
2023-06-29T10:58:29.545Z,1.27
2023-06-29T11:00:56.600Z,1.20
2023-06-29T11:03:24.364Z,1.00
2023-06-29T11:05:54.788Z,1.02
2023-06-29T11:08:22.669Z,1.95
2023-06-29T11:10:49.739Z,1.23
2023-06-29T11:13:19.299Z,1.30
2023-06-29T11:15:53.437Z,0.98
2023-06-29T11:18:20.466Z,1.17
2023-06-29T11:20:47.359Z,1.67
2023-06-29T11:23:14.687Z,1.38
2023-06-29T11:25:41.587Z,1.27
2023-06-29T11:28:08.239Z,1.20
2023-06-29T11:30:40.464Z,1.02
2023-06-29T11:33:19.969Z,1.13
2023-06-29T11:35:56.440Z,1.13
2023-06-29T11:38:23.155Z,1.00
2023-06-29T11:40:50.317Z,1.17
2023-06-29T11:43:17.164Z,1.02
2023-06-29T11:45:44.402Z,1.17
2023-06-29T11:48:19.854Z,0.93
2023-06-29T11:50:49.507Z,1.13
2023-06-29T11:53:17.365Z,0.93
2023-06-29T11:55:51.918Z,1.30
2023-06-29T11:58:18.752Z,1.00
2023-06-29T12:00:45.785Z,1.15
2023-06-29T12:03:13.355Z,1.20
2023-06-29T12:05:43.730Z,1.00
2023-06-29T12:08:11.381Z,1.42
2023-06-29T12:10:40.404Z,1.30
2023-06-29T12:13:10.449Z,0.85
2023-06-29T12:15:37.215Z,0.98
2023-06-29T12:18:15.220Z,0.82
2023-06-29T12:20:44.523Z,1.25
2023-06-29T12:23:15.538Z,1.40
2023-06-29T12:25:49.643Z,1.20
2023-06-29T12:28:16.810Z,1.10
2023-06-29T12:30:44.425Z,1.02
2023-06-29T12:33:13.174Z,1.02
2023-06-29T12:35:40.194Z,1.13
2023-06-29T12:38:07.278Z,1.00
2023-06-29T12:40:34.708Z,1.10
2023-06-29T12:43:02.081Z,1.20
2023-06-29T12:45:29.064Z,1.17
2023-06-29T12:47:56.205Z,1.88
2023-06-29T12:50:23.259Z,0.90
2023-06-29T12:52:50.061Z,1.02
2023-06-29T12:55:17.075Z,0.95
2023-06-29T12:57:45.222Z,1.52
2023-06-29T13:00:13.529Z,1.63
2023-06-29T13:02:40.876Z,1.50
2023-06-29T13:05:07.855Z,1.30
2023-06-29T13:07:36.062Z,1.25
2023-06-29T13:10:04.719Z,1.30
2023-06-29T13:12:31.590Z,1.35
2023-06-29T13:14:59.259Z,1.17
2023-06-29T13:17:26.385Z,1.67
2023-06-29T13:19:53.184Z,1.23
2023-06-29T13:22:20.324Z,1.60
2023-06-29T13:24:48.094Z,1.63
2023-06-29T13:27:15.170Z,1.38
2023-06-29T13:29:42.354Z,1.27
2023-06-29T13:32:09.851Z,1.27
2023-06-29T13:34:36.925Z,1.63
2023-06-29T13:37:04.028Z,1.60
2023-06-29T13:39:31.312Z,1.10
2023-06-29T13:41:58.199Z,1.02
2023-06-29T13:44:25.029Z,1.58
2023-06-29T13:46:51.788Z,1.45
2023-06-29T13:49:18.557Z,1.70
2023-06-29T13:51:46.861Z,1.20
2023-06-29T13:54:14.911Z,1.65
2023-06-29T13:56:41.624Z,1.50
2023-06-29T13:59:09.821Z,1.50
2023-06-29T14:01:38.767Z,1.20
2023-06-29T14:04:07.390Z,1.45
2023-06-29T14:06:37.584Z,1.50
2023-06-29T14:09:06.880Z,1.67
2023-06-29T14:11:33.907Z,1.38
2023-06-29T14:14:00.876Z,2.45
2023-06-29T14:16:29.182Z,1.38
2023-06-29T14:18:56.697Z,1.50
2023-06-29T14:21:23.843Z,1.58
2023-06-29T14:23:50.600Z,2.10
2023-06-29T14:26:17.980Z,2.45
2023-06-29T14:28:44.854Z,2.95
2023-06-29T14:31:12.391Z,2.55
2023-06-29T14:33:39.364Z,2.38
2023-06-29T14:36:06.577Z,2.92
2023-06-29T14:38:33.897Z,2.47
2023-06-29T14:41:01.658Z,2.78
2023-06-29T14:43:28.556Z,2.53
2023-06-29T14:45:57.013Z,2.55
2023-06-29T14:48:24.535Z,2.50
2023-06-29T14:50:55.225Z,2.78
2023-06-29T14:53:22.902Z,2.70
2023-06-29T14:55:50.445Z,2.10
2023-06-29T14:58:18.015Z,2.75
2023-06-29T15:00:45.918Z,2.47
2023-06-29T15:03:13.232Z,2.75
2023-06-29T15:05:40.298Z,2.65
2023-06-29T15:08:07.004Z,2.75
2023-06-29T15:10:33.591Z,3.08
2023-06-29T15:13:00.385Z,2.83
2023-06-29T15:15:27.161Z,2.47
2023-06-29T15:17:53.920Z,3.30
2023-06-29T15:20:20.763Z,2.72
2023-06-29T15:22:47.426Z,3.03
2023-06-29T15:25:14.363Z,2.35
2023-06-29T15:27:41.606Z,2.60
2023-06-29T15:30:08.832Z,2.72
2023-06-29T15:32:35.732Z,2.63
2023-06-29T15:35:03.844Z,3.40
2023-06-29T15:37:32.320Z,2.90
2023-06-29T15:39:59.077Z,2.53
2023-06-29T15:42:25.823Z,2.60
2023-06-29T15:44:52.450Z,2.60
2023-06-29T15:47:19.476Z,2.55
2023-06-29T15:49:46.237Z,2.75
2023-06-29T15:52:13.112Z,2.33
2023-06-29T15:54:40.338Z,2.65
2023-06-29T15:57:07.138Z,4.13
2023-06-29T15:59:33.733Z,2.17
2023-06-29T16:02:00.471Z,2.53
2023-06-29T16:04:27.123Z,2.70
2023-06-29T16:06:53.825Z,3.00
2023-06-29T16:09:20.638Z,2.38
2023-06-29T16:11:48.314Z,2.50
2023-06-29T16:14:15.427Z,2.10
2023-06-29T16:16:42.079Z,2.22
2023-06-29T16:19:10.776Z,2.55
2023-06-29T16:21:37.644Z,2.45
2023-06-29T16:24:04.652Z,5.68
2023-06-29T16:26:31.421Z,5.50
2023-06-29T16:28:58.078Z,3.25
2023-06-29T17:45:56.588Z,2.40
2023-06-29T17:49:16.785Z,2.10
2023-06-29T17:52:06.312Z,1.73
2023-06-29T17:58:21.444Z,2.20
2023-06-29T18:00:58.287Z,2.30
2023-06-29T18:03:30.916Z,2.20
2023-06-29T18:06:07.300Z,2.70
2023-06-29T18:08:49.253Z,2.00
2023-06-29T18:11:19.515Z,2.08
2023-06-29T18:13:58.067Z,2.10
2023-06-29T18:16:34.847Z,1.70
2023-06-29T18:19:12.241Z,1.38
2023-06-29T18:21:53.943Z,1.42
2023-06-29T18:24:34.083Z,2.17
2023-06-29T18:31:19.320Z,2.00
2023-06-29T18:34:13.686Z,1.83
2023-06-29T18:36:49.080Z,1.50
2023-06-29T18:39:35.449Z,1.98
2023-06-29T18:42:28.142Z,1.80
2023-06-29T18:45:06.688Z,1.88
2023-06-29T18:47:49.640Z,2.13
2023-06-29T18:50:21.282Z,2.45
2023-06-29T18:55:39.034Z,1.80
2023-06-29T18:58:22.182Z,1.90
2023-06-29T19:01:02.108Z,1.60
2023-06-29T19:03:41.134Z,2.17
2023-06-29T19:06:09.312Z,1.85
2023-06-29T19:08:37.664Z,1.80
2023-06-29T19:11:09.046Z,2.15
2023-06-29T19:13:37.504Z,1.80
2023-06-29T19:16:09.997Z,1.95
2023-06-29T19:18:45.318Z,2.00
2023-06-29T19:21:17.051Z,1.70
2023-06-29T19:23:45.033Z,1.70
2023-06-29T19:26:12.957Z,2.03
2023-06-29T19:28:40.831Z,1.85
2023-06-29T19:31:22.936Z,1.83
2023-06-29T19:33:54.919Z,2.08
2023-06-29T19:36:28.040Z,2.00
2023-06-29T19:38:59.148Z,1.67
2023-06-29T19:41:33.350Z,2.28
2023-06-29T19:44:13.411Z,1.73
2023-06-29T19:46:40.913Z,2.00
2023-06-29T19:49:08.076Z,1.80
2023-06-29T19:51:43.128Z,2.17
2023-06-29T19:54:29.864Z,2.20
2023-06-29T19:57:10.611Z,2.05
2023-06-29T20:00:35.200Z,1.98
2023-06-29T20:03:21.031Z,1.98
2023-06-29T20:05:57.954Z,1.98
2023-06-29T20:08:28.413Z,1.52
2023-06-29T20:11:03.051Z,2.20
2023-06-29T20:13:35.351Z,1.95
2023-06-29T20:16:04.933Z,1.83
2023-06-29T20:22:51.050Z,2.35
2023-06-29T20:25:47.590Z,2.08
2023-06-29T20:28:33.810Z,2.20
2023-06-29T20:31:40.477Z,2.38
2023-06-29T20:34:44.581Z,2.08
2023-06-29T21:45:18.268Z,1.80
2023-06-29T21:48:54.268Z,2.25
2023-06-29T21:53:11.245Z,2.00
2023-06-29T21:57:06.109Z,2.13
2023-06-29T22:03:12.424Z,1.80
2023-06-29T22:06:11.161Z,2.38
2023-06-29T22:09:09.747Z,2.15
2023-06-29T22:11:55.714Z,2.03
2023-06-29T22:15:12.576Z,2.13
2023-06-29T22:18:46.656Z,1.98
2023-06-29T22:25:52.778Z,2.05
2023-06-29T22:37:50.607Z,2.63
2023-06-29T22:40:48.722Z,2.28
2023-06-29T22:45:07.447Z,2.65
2023-06-29T22:54:28.803Z,2.10
2023-06-29T22:57:07.541Z,2.05
2023-06-29T23:03:10.200Z,2.60
2023-06-29T23:06:21.566Z,2.90
2023-06-29T23:15:26.605Z,2.53
2023-06-29T23:18:36.848Z,2.30
2023-06-29T23:24:34.462Z,2.67
2023-06-29T23:27:49.767Z,2.45
2023-06-29T23:30:48.879Z,2.35
2023-06-29T23:33:53.399Z,2.65
2023-06-29T23:57:39.782Z,3.22
